sensor_id;sensor_type;location;lat;lon;timestamp;P1;durP1;ratioP1;P2;durP2;ratioP2
29412;SDS011;16389;50.126;8.450;2023-02-07T00:02:17;0.93;;;0.82;;
29412;SDS011;16389;50.126;8.450;2023-02-07T00:04:42;1.02;;;0.70;;
29412;SDS011;16389;50.126;8.450;2023-02-07T00:07:08;0.52;;;0.43;;
29412;SDS011;16389;50.126;8.450;2023-02-07T00:09:34;1.10;;;0.70;;
29412;SDS011;16389;50.126;8.450;2023-02-07T00:12:01;0.88;;;0.65;;
29412;SDS011;16389;50.126;8.450;2023-02-07T00:14:27;0.70;;;0.70;;
29412;SDS011;16389;50.126;8.450;2023-02-07T00:16:53;0.80;;;0.80;;
29412;SDS011;16389;50.126;8.450;2023-02-07T00:19:19;2.35;;;0.70;;
29412;SDS011;16389;50.126;8.450;2023-02-07T00:21:44;1.52;;;1.00;;
29412;SDS011;16389;50.126;8.450;2023-02-07T00:24:10;0.60;;;0.50;;
29412;SDS011;16389;50.126;8.450;2023-02-07T00:26:36;1.20;;;0.77;;
29412;SDS011;16389;50.126;8.450;2023-02-07T00:29:02;0.68;;;0.68;;
29412;SDS011;16389;50.126;8.450;2023-02-07T00:31:29;1.60;;;0.73;;
29412;SDS011;16389;50.126;8.450;2023-02-07T00:33:56;0.88;;;0.70;;
29412;SDS011;16389;50.126;8.450;2023-02-07T00:36:24;0.50;;;0.50;;
29412;SDS011;16389;50.126;8.450;2023-02-07T00:38:54;0.80;;;0.73;;
29412;SDS011;16389;50.126;8.450;2023-02-07T00:41:21;1.15;;;0.90;;
29412;SDS011;16389;50.126;8.450;2023-02-07T00:43:47;1.55;;;0.60;;
29412;SDS011;16389;50.126;8.450;2023-02-07T00:46:13;0.90;;;0.60;;
29412;SDS011;16389;50.126;8.450;2023-02-07T00:48:39;1.05;;;0.73;;
29412;SDS011;16389;50.126;8.450;2023-02-07T00:51:05;1.02;;;0.88;;
29412;SDS011;16389;50.126;8.450;2023-02-07T00:53:31;0.90;;;0.80;;
29412;SDS011;16389;50.126;8.450;2023-02-07T00:55:57;0.70;;;0.70;;
29412;SDS011;16389;50.126;8.450;2023-02-07T00:58:22;0.80;;;0.68;;
29412;SDS011;16389;50.126;8.450;2023-02-07T01:00:48;1.25;;;1.15;;
29412;SDS011;16389;50.126;8.450;2023-02-07T01:03:14;1.00;;;0.80;;
29412;SDS011;16389;50.126;8.450;2023-02-07T01:05:40;0.93;;;0.70;;
29412;SDS011;16389;50.126;8.450;2023-02-07T01:08:06;1.02;;;0.70;;
29412;SDS011;16389;50.126;8.450;2023-02-07T01:10:32;0.98;;;0.80;;
29412;SDS011;16389;50.126;8.450;2023-02-07T01:12:58;0.80;;;0.80;;
29412;SDS011;16389;50.126;8.450;2023-02-07T01:15:24;1.02;;;0.82;;
29412;SDS011;16389;50.126;8.450;2023-02-07T01:17:50;0.95;;;0.65;;
29412;SDS011;16389;50.126;8.450;2023-02-07T01:20:16;0.88;;;0.88;;
29412;SDS011;16389;50.126;8.450;2023-02-07T01:22:41;1.20;;;0.85;;
29412;SDS011;16389;50.126;8.450;2023-02-07T01:25:07;0.93;;;0.82;;
29412;SDS011;16389;50.126;8.450;2023-02-07T01:27:34;0.73;;;0.73;;
29412;SDS011;16389;50.126;8.450;2023-02-07T01:30:00;1.08;;;0.80;;
29412;SDS011;16389;50.126;8.450;2023-02-07T01:32:26;1.52;;;0.80;;
29412;SDS011;16389;50.126;8.450;2023-02-07T01:34:52;0.77;;;0.77;;
29412;SDS011;16389;50.126;8.450;2023-02-07T01:37:18;1.38;;;0.80;;
29412;SDS011;16389;50.126;8.450;2023-02-07T01:39:45;0.95;;;0.90;;
29412;SDS011;16389;50.126;8.450;2023-02-07T01:42:14;1.38;;;0.80;;
29412;SDS011;16389;50.126;8.450;2023-02-07T01:47:08;1.33;;;0.80;;
29412;SDS011;16389;50.126;8.450;2023-02-07T01:49:38;0.70;;;0.70;;
29412;SDS011;16389;50.126;8.450;2023-02-07T01:52:05;1.13;;;0.73;;
29412;SDS011;16389;50.126;8.450;2023-02-07T01:54:35;1.25;;;0.82;;
29412;SDS011;16389;50.126;8.450;2023-02-07T01:57:03;0.90;;;0.82;;
29412;SDS011;16389;50.126;8.450;2023-02-07T01:59:32;1.85;;;1.25;;
29412;SDS011;16389;50.126;8.450;2023-02-07T02:02:00;0.80;;;0.70;;
29412;SDS011;16389;50.126;8.450;2023-02-07T02:04:27;0.70;;;0.70;;
29412;SDS011;16389;50.126;8.450;2023-02-07T02:06:53;0.60;;;0.60;;
29412;SDS011;16389;50.126;8.450;2023-02-07T02:09:20;1.30;;;1.00;;
29412;SDS011;16389;50.126;8.450;2023-02-07T02:11:56;1.08;;;0.80;;
29412;SDS011;16389;50.126;8.450;2023-02-07T02:14:52;0.88;;;0.80;;
29412;SDS011;16389;50.126;8.450;2023-02-07T02:20:36;0.70;;;0.70;;
29412;SDS011;16389;50.126;8.450;2023-02-07T02:27:08;1.08;;;0.90;;
29412;SDS011;16389;50.126;8.450;2023-02-07T02:41:09;1.15;;;1.00;;
29412;SDS011;16389;50.126;8.450;2023-02-07T02:46:22;1.23;;;1.00;;
29412;SDS011;16389;50.126;8.450;2023-02-07T02:51:17;1.60;;;0.88;;
29412;SDS011;16389;50.126;8.450;2023-02-07T02:53:56;1.23;;;1.00;;
29412;SDS011;16389;50.126;8.450;2023-02-07T02:59:32;1.50;;;0.90;;
29412;SDS011;16389;50.126;8.450;2023-02-07T03:05:05;1.85;;;1.40;;
29412;SDS011;16389;50.126;8.450;2023-02-07T03:10:28;1.55;;;1.00;;
29412;SDS011;16389;50.126;8.450;2023-02-07T03:18:59;3.70;;;1.75;;
29412;SDS011;16389;50.126;8.450;2023-02-07T03:21:43;2.25;;;1.30;;
29412;SDS011;16389;50.126;8.450;2023-02-07T03:26:39;1.42;;;1.00;;
29412;SDS011;16389;50.126;8.450;2023-02-07T03:29:07;2.15;;;1.90;;
29412;SDS011;16389;50.126;8.450;2023-02-07T03:31:35;1.65;;;1.40;;
29412;SDS011;16389;50.126;8.450;2023-02-07T03:34:07;1.40;;;1.23;;
29412;SDS011;16389;50.126;8.450;2023-02-07T03:39:08;1.83;;;1.55;;
29412;SDS011;16389;50.126;8.450;2023-02-07T03:41:39;1.55;;;1.42;;
29412;SDS011;16389;50.126;8.450;2023-02-07T03:44:08;1.60;;;1.20;;
29412;SDS011;16389;50.126;8.450;2023-02-07T03:46:36;4.90;;;1.40;;
29412;SDS011;16389;50.126;8.450;2023-02-07T03:49:02;3.15;;;1.92;;
29412;SDS011;16389;50.126;8.450;2023-02-07T03:51:27;3.80;;;1.75;;
29412;SDS011;16389;50.126;8.450;2023-02-07T03:53:53;2.65;;;1.50;;
29412;SDS011;16389;50.126;8.450;2023-02-07T03:56:19;3.38;;;1.83;;
29412;SDS011;16389;50.126;8.450;2023-02-07T03:58:44;3.60;;;1.65;;
29412;SDS011;16389;50.126;8.450;2023-02-07T04:01:10;2.90;;;2.00;;
29412;SDS011;16389;50.126;8.450;2023-02-07T04:03:35;2.05;;;1.65;;
29412;SDS011;16389;50.126;8.450;2023-02-07T04:06:01;2.50;;;2.05;;
29412;SDS011;16389;50.126;8.450;2023-02-07T04:08:27;2.15;;;1.90;;
29412;SDS011;16389;50.126;8.450;2023-02-07T04:10:56;4.03;;;2.15;;
29412;SDS011;16389;50.126;8.450;2023-02-07T04:13:22;3.45;;;1.80;;
29412;SDS011;16389;50.126;8.450;2023-02-07T04:15:48;2.35;;;1.40;;
29412;SDS011;16389;50.126;8.450;2023-02-07T04:18:14;2.30;;;1.70;;
29412;SDS011;16389;50.126;8.450;2023-02-07T04:20:39;2.10;;;1.45;;
29412;SDS011;16389;50.126;8.450;2023-02-07T04:23:05;2.13;;;1.60;;
29412;SDS011;16389;50.126;8.450;2023-02-07T04:25:30;4.28;;;2.58;;
29412;SDS011;16389;50.126;8.450;2023-02-07T04:27:56;2.22;;;1.75;;
29412;SDS011;16389;50.126;8.450;2023-02-07T04:30:22;3.38;;;2.88;;
29412;SDS011;16389;50.126;8.450;2023-02-07T04:32:47;3.47;;;2.17;;
29412;SDS011;16389;50.126;8.450;2023-02-07T04:35:13;4.43;;;2.17;;
29412;SDS011;16389;50.126;8.450;2023-02-07T04:37:38;2.80;;;2.05;;
29412;SDS011;16389;50.126;8.450;2023-02-07T04:40:04;2.38;;;1.73;;
29412;SDS011;16389;50.126;8.450;2023-02-07T04:42:31;7.18;;;2.72;;
29412;SDS011;16389;50.126;8.450;2023-02-07T04:44:56;2.05;;;1.88;;
29412;SDS011;16389;50.126;8.450;2023-02-07T04:47:22;3.15;;;2.10;;
29412;SDS011;16389;50.126;8.450;2023-02-07T04:49:48;3.92;;;2.28;;
29412;SDS011;16389;50.126;8.450;2023-02-07T04:52:13;3.67;;;2.55;;
29412;SDS011;16389;50.126;8.450;2023-02-07T04:54:39;3.55;;;3.00;;
29412;SDS011;16389;50.126;8.450;2023-02-07T04:57:05;3.13;;;2.50;;
29412;SDS011;16389;50.126;8.450;2023-02-07T04:59:30;3.58;;;2.00;;
29412;SDS011;16389;50.126;8.450;2023-02-07T05:01:56;3.72;;;2.15;;
29412;SDS011;16389;50.126;8.450;2023-02-07T05:04:22;3.45;;;2.60;;
29412;SDS011;16389;50.126;8.450;2023-02-07T05:06:47;4.50;;;2.90;;
29412;SDS011;16389;50.126;8.450;2023-02-07T05:09:13;3.63;;;2.28;;
29412;SDS011;16389;50.126;8.450;2023-02-07T05:11:38;4.25;;;2.72;;
29412;SDS011;16389;50.126;8.450;2023-02-07T05:14:04;2.30;;;2.10;;
29412;SDS011;16389;50.126;8.450;2023-02-07T05:16:30;2.40;;;1.92;;
29412;SDS011;16389;50.126;8.450;2023-02-07T05:18:55;3.53;;;2.67;;
29412;SDS011;16389;50.126;8.450;2023-02-07T05:21:21;4.15;;;3.15;;
29412;SDS011;16389;50.126;8.450;2023-02-07T05:23:47;5.90;;;3.70;;
29412;SDS011;16389;50.126;8.450;2023-02-07T05:26:12;7.93;;;3.45;;
29412;SDS011;16389;50.126;8.450;2023-02-07T05:28:38;4.65;;;3.03;;
29412;SDS011;16389;50.126;8.450;2023-02-07T05:31:04;4.03;;;2.88;;
29412;SDS011;16389;50.126;8.450;2023-02-07T05:33:30;5.22;;;3.20;;
29412;SDS011;16389;50.126;8.450;2023-02-07T05:35:55;3.50;;;2.45;;
29412;SDS011;16389;50.126;8.450;2023-02-07T05:38:24;4.30;;;2.85;;
29412;SDS011;16389;50.126;8.450;2023-02-07T05:40:49;5.18;;;2.28;;
29412;SDS011;16389;50.126;8.450;2023-02-07T05:43:15;5.32;;;3.00;;
29412;SDS011;16389;50.126;8.450;2023-02-07T05:45:41;5.78;;;3.53;;
29412;SDS011;16389;50.126;8.450;2023-02-07T05:48:09;3.58;;;2.00;;
29412;SDS011;16389;50.126;8.450;2023-02-07T05:50:35;5.80;;;3.47;;
29412;SDS011;16389;50.126;8.450;2023-02-07T05:53:00;4.95;;;2.78;;
29412;SDS011;16389;50.126;8.450;2023-02-07T05:55:26;4.22;;;2.88;;
29412;SDS011;16389;50.126;8.450;2023-02-07T05:57:52;3.75;;;2.47;;
29412;SDS011;16389;50.126;8.450;2023-02-07T06:00:18;5.32;;;3.00;;
29412;SDS011;16389;50.126;8.450;2023-02-07T06:02:44;4.65;;;2.65;;
29412;SDS011;16389;50.126;8.450;2023-02-07T06:05:11;4.97;;;2.75;;
29412;SDS011;16389;50.126;8.450;2023-02-07T06:07:38;5.60;;;2.50;;
29412;SDS011;16389;50.126;8.450;2023-02-07T06:10:04;5.13;;;3.03;;
29412;SDS011;16389;50.126;8.450;2023-02-07T06:12:31;4.72;;;2.78;;
29412;SDS011;16389;50.126;8.450;2023-02-07T06:14:57;3.75;;;2.85;;
29412;SDS011;16389;50.126;8.450;2023-02-07T06:17:23;6.60;;;3.70;;
29412;SDS011;16389;50.126;8.450;2023-02-07T06:19:49;5.15;;;3.55;;
29412;SDS011;16389;50.126;8.450;2023-02-07T06:22:16;4.53;;;3.13;;
29412;SDS011;16389;50.126;8.450;2023-02-07T06:24:42;7.05;;;3.55;;
29412;SDS011;16389;50.126;8.450;2023-02-07T06:27:07;6.43;;;4.15;;
29412;SDS011;16389;50.126;8.450;2023-02-07T06:29:33;6.75;;;3.53;;
29412;SDS011;16389;50.126;8.450;2023-02-07T06:31:59;6.18;;;3.20;;
29412;SDS011;16389;50.126;8.450;2023-02-07T06:34:24;6.18;;;4.55;;
29412;SDS011;16389;50.126;8.450;2023-02-07T06:36:50;6.63;;;3.80;;
29412;SDS011;16389;50.126;8.450;2023-02-07T06:39:16;6.32;;;4.13;;
29412;SDS011;16389;50.126;8.450;2023-02-07T06:41:42;6.18;;;4.38;;
29412;SDS011;16389;50.126;8.450;2023-02-07T06:44:07;7.20;;;4.03;;
29412;SDS011;16389;50.126;8.450;2023-02-07T06:46:33;6.68;;;4.20;;
29412;SDS011;16389;50.126;8.450;2023-02-07T06:48:59;5.88;;;4.25;;
29412;SDS011;16389;50.126;8.450;2023-02-07T06:51:24;8.50;;;4.28;;
29412;SDS011;16389;50.126;8.450;2023-02-07T06:53:50;7.40;;;3.92;;
29412;SDS011;16389;50.126;8.450;2023-02-07T06:56:16;9.52;;;4.30;;
29412;SDS011;16389;50.126;8.450;2023-02-07T06:58:41;3.95;;;3.17;;
29412;SDS011;16389;50.126;8.450;2023-02-07T07:01:07;5.88;;;4.00;;
29412;SDS011;16389;50.126;8.450;2023-02-07T07:03:33;5.85;;;3.45;;
29412;SDS011;16389;50.126;8.450;2023-02-07T07:05:58;4.95;;;3.38;;
29412;SDS011;16389;50.126;8.450;2023-02-07T07:08:24;6.85;;;3.13;;
29412;SDS011;16389;50.126;8.450;2023-02-07T07:10:52;5.45;;;3.65;;
29412;SDS011;16389;50.126;8.450;2023-02-07T07:13:18;7.30;;;3.75;;
29412;SDS011;16389;50.126;8.450;2023-02-07T07:15:44;5.25;;;3.63;;
29412;SDS011;16389;50.126;8.450;2023-02-07T07:18:10;7.90;;;4.60;;
29412;SDS011;16389;50.126;8.450;2023-02-07T07:20:36;6.45;;;4.55;;
29412;SDS011;16389;50.126;8.450;2023-02-07T07:23:02;6.28;;;3.30;;
29412;SDS011;16389;50.126;8.450;2023-02-07T07:25:27;5.38;;;4.45;;
29412;SDS011;16389;50.126;8.450;2023-02-07T07:27:53;5.20;;;4.65;;
29412;SDS011;16389;50.126;8.450;2023-02-07T07:30:19;8.60;;;4.72;;
29412;SDS011;16389;50.126;8.450;2023-02-07T07:32:45;7.13;;;5.25;;
29412;SDS011;16389;50.126;8.450;2023-02-07T07:35:11;6.97;;;4.38;;
29412;SDS011;16389;50.126;8.450;2023-02-07T07:37:36;6.70;;;5.05;;
29412;SDS011;16389;50.126;8.450;2023-02-07T07:40:02;7.57;;;4.32;;
29412;SDS011;16389;50.126;8.450;2023-02-07T07:42:28;5.40;;;3.83;;
29412;SDS011;16389;50.126;8.450;2023-02-07T07:44:54;8.18;;;4.15;;
29412;SDS011;16389;50.126;8.450;2023-02-07T07:47:19;6.55;;;4.35;;
29412;SDS011;16389;50.126;8.450;2023-02-07T07:49:45;8.25;;;4.43;;
29412;SDS011;16389;50.126;8.450;2023-02-07T07:52:11;7.70;;;4.10;;
29412;SDS011;16389;50.126;8.450;2023-02-07T07:54:37;8.00;;;4.97;;
29412;SDS011;16389;50.126;8.450;2023-02-07T07:57:02;7.70;;;4.80;;
29412;SDS011;16389;50.126;8.450;2023-02-07T07:59:28;7.68;;;4.38;;
29412;SDS011;16389;50.126;8.450;2023-02-07T08:01:53;6.72;;;4.30;;
29412;SDS011;16389;50.126;8.450;2023-02-07T08:04:19;8.35;;;4.28;;
29412;SDS011;16389;50.126;8.450;2023-02-07T08:06:45;8.13;;;5.13;;
29412;SDS011;16389;50.126;8.450;2023-02-07T08:09:10;11.57;;;4.40;;
29412;SDS011;16389;50.126;8.450;2023-02-07T08:11:36;6.78;;;5.07;;
29412;SDS011;16389;50.126;8.450;2023-02-07T08:14:02;7.00;;;4.70;;
29412;SDS011;16389;50.126;8.450;2023-02-07T08:16:27;5.30;;;3.85;;
29412;SDS011;16389;50.126;8.450;2023-02-07T08:18:53;6.07;;;4.22;;
29412;SDS011;16389;50.126;8.450;2023-02-07T08:21:19;6.88;;;4.75;;
29412;SDS011;16389;50.126;8.450;2023-02-07T08:23:45;6.72;;;4.55;;
29412;SDS011;16389;50.126;8.450;2023-02-07T08:26:11;9.90;;;4.90;;
29412;SDS011;16389;50.126;8.450;2023-02-07T08:28:37;7.43;;;5.00;;
29412;SDS011;16389;50.126;8.450;2023-02-07T08:31:03;9.82;;;5.50;;
29412;SDS011;16389;50.126;8.450;2023-02-07T08:33:30;6.40;;;4.13;;
29412;SDS011;16389;50.126;8.450;2023-02-07T08:35:56;8.80;;;4.03;;
29412;SDS011;16389;50.126;8.450;2023-02-07T08:38:24;7.13;;;4.45;;
29412;SDS011;16389;50.126;8.450;2023-02-07T08:40:49;7.63;;;4.47;;
29412;SDS011;16389;50.126;8.450;2023-02-07T08:43:15;5.90;;;4.57;;
29412;SDS011;16389;50.126;8.450;2023-02-07T08:45:44;10.38;;;4.82;;
29412;SDS011;16389;50.126;8.450;2023-02-07T08:48:11;5.63;;;4.07;;
29412;SDS011;16389;50.126;8.450;2023-02-07T08:50:37;5.15;;;4.00;;
29412;SDS011;16389;50.126;8.450;2023-02-07T08:53:02;10.45;;;4.97;;
29412;SDS011;16389;50.126;8.450;2023-02-07T08:55:28;6.55;;;5.03;;
29412;SDS011;16389;50.126;8.450;2023-02-07T08:57:54;8.18;;;5.07;;
29412;SDS011;16389;50.126;8.450;2023-02-07T09:00:20;7.13;;;4.35;;
29412;SDS011;16389;50.126;8.450;2023-02-07T09:02:46;10.88;;;5.90;;
29412;SDS011;16389;50.126;8.450;2023-02-07T09:05:12;5.75;;;3.70;;
29412;SDS011;16389;50.126;8.450;2023-02-07T09:07:37;7.95;;;4.47;;
29412;SDS011;16389;50.126;8.450;2023-02-07T09:10:04;8.32;;;4.72;;
29412;SDS011;16389;50.126;8.450;2023-02-07T09:12:32;7.88;;;4.40;;
29412;SDS011;16389;50.126;8.450;2023-02-07T09:14:58;7.95;;;4.72;;
29412;SDS011;16389;50.126;8.450;2023-02-07T09:17:24;7.35;;;5.30;;
29412;SDS011;16389;50.126;8.450;2023-02-07T09:19:50;8.27;;;4.80;;
29412;SDS011;16389;50.126;8.450;2023-02-07T09:22:16;8.13;;;4.80;;
29412;SDS011;16389;50.126;8.450;2023-02-07T09:24:42;11.57;;;5.47;;
29412;SDS011;16389;50.126;8.450;2023-02-07T09:27:07;8.57;;;4.32;;
29412;SDS011;16389;50.126;8.450;2023-02-07T09:29:33;8.88;;;6.43;;
29412;SDS011;16389;50.126;8.450;2023-02-07T09:31:59;7.68;;;4.40;;
29412;SDS011;16389;50.126;8.450;2023-02-07T09:34:24;6.00;;;4.90;;
29412;SDS011;16389;50.126;8.450;2023-02-07T09:36:51;6.60;;;4.70;;
29412;SDS011;16389;50.126;8.450;2023-02-07T09:39:17;6.18;;;4.35;;
29412;SDS011;16389;50.126;8.450;2023-02-07T09:44:31;6.53;;;5.55;;
29412;SDS011;16389;50.126;8.450;2023-02-07T09:47:22;18.13;;;5.85;;
29412;SDS011;16389;50.126;8.450;2023-02-07T09:49:55;10.65;;;4.65;;
29412;SDS011;16389;50.126;8.450;2023-02-07T09:52:28;6.68;;;5.00;;
29412;SDS011;16389;50.126;8.450;2023-02-07T09:55:14;13.07;;;5.78;;
29412;SDS011;16389;50.126;8.450;2023-02-07T09:57:46;8.77;;;4.75;;
29412;SDS011;16389;50.126;8.450;2023-02-07T10:00:19;9.85;;;4.10;;
29412;SDS011;16389;50.126;8.450;2023-02-07T10:02:56;7.88;;;4.95;;
29412;SDS011;16389;50.126;8.450;2023-02-07T10:05:26;5.30;;;4.78;;
29412;SDS011;16389;50.126;8.450;2023-02-07T10:08:00;6.43;;;4.82;;
29412;SDS011;16389;50.126;8.450;2023-02-07T10:11:14;7.13;;;4.85;;
29412;SDS011;16389;50.126;8.450;2023-02-07T10:27:06;7.13;;;5.13;;
29412;SDS011;16389;50.126;8.450;2023-02-07T10:32:44;5.95;;;4.05;;
29412;SDS011;16389;50.126;8.450;2023-02-07T10:37:45;6.63;;;4.43;;
29412;SDS011;16389;50.126;8.450;2023-02-07T10:40:16;7.75;;;4.38;;
29412;SDS011;16389;50.126;8.450;2023-02-07T10:42:44;6.90;;;4.73;;
29412;SDS011;16389;50.126;8.450;2023-02-07T10:45:14;8.23;;;5.18;;
29412;SDS011;16389;50.126;8.450;2023-02-07T10:47:40;6.80;;;5.47;;
29412;SDS011;16389;50.126;8.450;2023-02-07T10:50:08;6.07;;;4.07;;
29412;SDS011;16389;50.126;8.450;2023-02-07T10:52:38;8.60;;;5.47;;
29412;SDS011;16389;50.126;8.450;2023-02-07T10:55:11;6.80;;;4.57;;
29412;SDS011;16389;50.126;8.450;2023-02-07T10:57:40;8.40;;;6.03;;
29412;SDS011;16389;50.126;8.450;2023-02-07T11:00:22;8.65;;;5.03;;
29412;SDS011;16389;50.126;8.450;2023-02-07T11:02:51;6.70;;;4.47;;
29412;SDS011;16389;50.126;8.450;2023-02-07T11:07:56;10.02;;;5.25;;
29412;SDS011;16389;50.126;8.450;2023-02-07T11:10:25;5.63;;;4.20;;
29412;SDS011;16389;50.126;8.450;2023-02-07T11:12:56;8.32;;;5.60;;
29412;SDS011;16389;50.126;8.450;2023-02-07T11:15:24;8.05;;;4.72;;
29412;SDS011;16389;50.126;8.450;2023-02-07T11:18:01;7.47;;;4.53;;
29412;SDS011;16389;50.126;8.450;2023-02-07T11:22:58;6.72;;;4.53;;
29412;SDS011;16389;50.126;8.450;2023-02-07T11:25:32;8.48;;;5.50;;
29412;SDS011;16389;50.126;8.450;2023-02-07T11:28:01;6.15;;;4.18;;
29412;SDS011;16389;50.126;8.450;2023-02-07T11:30:28;6.15;;;4.20;;
29412;SDS011;16389;50.126;8.450;2023-02-07T11:32:58;6.35;;;4.38;;
29412;SDS011;16389;50.126;8.450;2023-02-07T11:35:28;6.95;;;5.05;;
29412;SDS011;16389;50.126;8.450;2023-02-07T11:37:58;6.03;;;5.28;;
29412;SDS011;16389;50.126;8.450;2023-02-07T11:40:27;9.18;;;5.03;;
29412;SDS011;16389;50.126;8.450;2023-02-07T11:43:02;6.45;;;4.97;;
29412;SDS011;16389;50.126;8.450;2023-02-07T11:45:37;7.32;;;4.90;;
29412;SDS011;16389;50.126;8.450;2023-02-07T11:48:04;11.38;;;5.95;;
29412;SDS011;16389;50.126;8.450;2023-02-07T11:50:34;9.50;;;4.78;;
29412;SDS011;16389;50.126;8.450;2023-02-07T11:53:03;7.05;;;5.28;;
29412;SDS011;16389;50.126;8.450;2023-02-07T11:55:33;7.47;;;4.18;;
29412;SDS011;16389;50.126;8.450;2023-02-07T11:58:09;8.90;;;4.47;;
29412;SDS011;16389;50.126;8.450;2023-02-07T12:00:44;7.57;;;5.20;;
29412;SDS011;16389;50.126;8.450;2023-02-07T12:03:17;8.63;;;4.22;;
29412;SDS011;16389;50.126;8.450;2023-02-07T12:05:55;7.10;;;4.53;;
29412;SDS011;16389;50.126;8.450;2023-02-07T12:08:26;7.63;;;5.22;;
29412;SDS011;16389;50.126;8.450;2023-02-07T12:10:55;5.80;;;5.07;;
29412;SDS011;16389;50.126;8.450;2023-02-07T12:13:25;9.13;;;3.78;;
29412;SDS011;16389;50.126;8.450;2023-02-07T12:16:01;6.30;;;4.00;;
29412;SDS011;16389;50.126;8.450;2023-02-07T12:18:55;5.68;;;4.10;;
29412;SDS011;16389;50.126;8.450;2023-02-07T12:21:41;9.65;;;5.22;;
29412;SDS011;16389;50.126;8.450;2023-02-07T12:27:16;7.90;;;4.20;;
29412;SDS011;16389;50.126;8.450;2023-02-07T12:37:44;5.45;;;3.92;;
29412;SDS011;16389;50.126;8.450;2023-02-07T12:40:20;5.88;;;4.47;;
29412;SDS011;16389;50.126;8.450;2023-02-07T12:43:05;5.88;;;4.50;;
29412;SDS011;16389;50.126;8.450;2023-02-07T12:45:37;5.65;;;4.70;;
29412;SDS011;16389;50.126;8.450;2023-02-07T12:48:30;5.18;;;4.00;;
29412;SDS011;16389;50.126;8.450;2023-02-07T12:51:14;7.20;;;4.40;;
29412;SDS011;16389;50.126;8.450;2023-02-07T13:07:25;10.05;;;5.03;;
29412;SDS011;16389;50.126;8.450;2023-02-07T13:10:00;6.05;;;4.28;;
29412;SDS011;16389;50.126;8.450;2023-02-07T13:12:43;8.73;;;3.95;;
29412;SDS011;16389;50.126;8.450;2023-02-07T13:15:33;6.70;;;4.20;;
29412;SDS011;16389;50.126;8.450;2023-02-07T13:18:27;6.85;;;4.43;;
29412;SDS011;16389;50.126;8.450;2023-02-07T13:21:10;7.70;;;3.78;;
29412;SDS011;16389;50.126;8.450;2023-02-07T13:23:47;5.30;;;4.10;;
29412;SDS011;16389;50.126;8.450;2023-02-07T13:26:22;6.78;;;4.38;;
29412;SDS011;16389;50.126;8.450;2023-02-07T13:28:53;6.05;;;4.40;;
29412;SDS011;16389;50.126;8.450;2023-02-07T13:31:23;6.43;;;3.63;;
29412;SDS011;16389;50.126;8.450;2023-02-07T13:34:11;5.93;;;3.80;;
29412;SDS011;16389;50.126;8.450;2023-02-07T13:36:41;6.07;;;4.38;;
29412;SDS011;16389;50.126;8.450;2023-02-07T13:42:18;9.05;;;4.15;;
29412;SDS011;16389;50.126;8.450;2023-02-07T13:55:52;9.50;;;4.82;;
29412;SDS011;16389;50.126;8.450;2023-02-07T14:01:16;11.57;;;5.25;;
29412;SDS011;16389;50.126;8.450;2023-02-07T14:03:52;5.85;;;3.25;;
29412;SDS011;16389;50.126;8.450;2023-02-07T14:06:31;6.15;;;3.95;;
29412;SDS011;16389;50.126;8.450;2023-02-07T14:11:57;7.40;;;3.85;;
29412;SDS011;16389;50.126;8.450;2023-02-07T14:14:28;8.50;;;4.25;;
29412;SDS011;16389;50.126;8.450;2023-02-07T14:30:13;6.85;;;5.32;;
29412;SDS011;16389;50.126;8.450;2023-02-07T14:36:00;7.25;;;4.07;;
29412;SDS011;16389;50.126;8.450;2023-02-07T14:41:13;5.15;;;3.67;;
29412;SDS011;16389;50.126;8.450;2023-02-07T14:43:47;5.78;;;3.35;;
29412;SDS011;16389;50.126;8.450;2023-02-07T14:46:16;5.15;;;4.05;;
29412;SDS011;16389;50.126;8.450;2023-02-07T14:49:23;6.35;;;4.05;;
29412;SDS011;16389;50.126;8.450;2023-02-07T14:52:01;5.97;;;3.75;;
29412;SDS011;16389;50.126;8.450;2023-02-07T15:00:14;7.10;;;4.47;;
29412;SDS011;16389;50.126;8.450;2023-02-07T15:02:37;9.77;;;3.95;;
29412;SDS011;16389;50.126;8.450;2023-02-07T15:07:45;5.57;;;3.08;;
29412;SDS011;16389;50.126;8.450;2023-02-07T15:10:13;8.50;;;3.78;;
29412;SDS011;16389;50.126;8.450;2023-02-07T15:12:46;4.97;;;3.70;;
29412;SDS011;16389;50.126;8.450;2023-02-07T15:15:20;4.72;;;3.88;;
29412;SDS011;16389;50.126;8.450;2023-02-07T15:17:50;5.13;;;3.25;;
29412;SDS011;16389;50.126;8.450;2023-02-07T15:20:18;5.95;;;4.07;;
29412;SDS011;16389;50.126;8.450;2023-02-07T15:25:19;4.30;;;3.22;;
29412;SDS011;16389;50.126;8.450;2023-02-07T15:30:28;5.10;;;3.72;;
29412;SDS011;16389;50.126;8.450;2023-02-07T15:32:54;4.40;;;3.45;;
29412;SDS011;16389;50.126;8.450;2023-02-07T15:35:21;5.60;;;3.42;;
29412;SDS011;16389;50.126;8.450;2023-02-07T15:37:47;6.28;;;3.67;;
29412;SDS011;16389;50.126;8.450;2023-02-07T15:40:14;8.15;;;3.17;;
29412;SDS011;16389;50.126;8.450;2023-02-07T15:42:49;5.07;;;3.60;;
29412;SDS011;16389;50.126;8.450;2023-02-07T15:45:30;4.68;;;3.75;;
29412;SDS011;16389;50.126;8.450;2023-02-07T15:50:30;4.40;;;3.15;;
29412;SDS011;16389;50.126;8.450;2023-02-07T15:52:57;3.45;;;2.65;;
29412;SDS011;16389;50.126;8.450;2023-02-07T15:58:21;5.28;;;2.72;;
29412;SDS011;16389;50.126;8.450;2023-02-07T16:00:48;4.38;;;2.63;;
29412;SDS011;16389;50.126;8.450;2023-02-07T16:03:25;4.68;;;3.20;;
29412;SDS011;16389;50.126;8.450;2023-02-07T16:08:36;7.65;;;4.18;;
29412;SDS011;16389;50.126;8.450;2023-02-07T16:12:05;5.07;;;3.03;;
29412;SDS011;16389;50.126;8.450;2023-02-07T16:16:48;3.80;;;3.03;;
29412;SDS011;16389;50.126;8.450;2023-02-07T16:19:22;5.22;;;3.17;;
29412;SDS011;16389;50.126;8.450;2023-02-07T16:24:40;3.42;;;2.45;;
29412;SDS011;16389;50.126;8.450;2023-02-07T16:27:12;6.40;;;2.55;;
29412;SDS011;16389;50.126;8.450;2023-02-07T16:29:41;3.50;;;2.50;;
29412;SDS011;16389;50.126;8.450;2023-02-07T16:32:08;3.70;;;1.98;;
29412;SDS011;16389;50.126;8.450;2023-02-07T16:34:35;4.97;;;2.13;;
29412;SDS011;16389;50.126;8.450;2023-02-07T16:37:01;5.38;;;2.72;;
29412;SDS011;16389;50.126;8.450;2023-02-07T16:39:27;3.95;;;2.72;;
29412;SDS011;16389;50.126;8.450;2023-02-07T16:41:53;5.80;;;3.53;;
29412;SDS011;16389;50.126;8.450;2023-02-07T16:44:25;3.17;;;2.58;;
29412;SDS011;16389;50.126;8.450;2023-02-07T16:46:52;4.93;;;2.72;;
29412;SDS011;16389;50.126;8.450;2023-02-07T16:49:22;4.88;;;2.35;;
29412;SDS011;16389;50.126;8.450;2023-02-07T16:51:49;5.65;;;3.50;;
29412;SDS011;16389;50.126;8.450;2023-02-07T16:54:16;5.35;;;3.40;;
29412;SDS011;16389;50.126;8.450;2023-02-07T16:56:45;4.60;;;2.35;;
29412;SDS011;16389;50.126;8.450;2023-02-07T16:59:14;5.20;;;2.95;;
29412;SDS011;16389;50.126;8.450;2023-02-07T17:01:45;4.47;;;2.05;;
29412;SDS011;16389;50.126;8.450;2023-02-07T17:04:12;3.97;;;2.05;;
29412;SDS011;16389;50.126;8.450;2023-02-07T17:06:38;5.30;;;2.65;;
29412;SDS011;16389;50.126;8.450;2023-02-07T17:09:26;4.22;;;2.40;;
29412;SDS011;16389;50.126;8.450;2023-02-07T17:11:51;6.47;;;3.67;;
29412;SDS011;16389;50.126;8.450;2023-02-07T17:14:17;7.63;;;3.10;;
29412;SDS011;16389;50.126;8.450;2023-02-07T17:16:43;4.68;;;3.08;;
29412;SDS011;16389;50.126;8.450;2023-02-07T17:19:13;5.22;;;2.65;;
29412;SDS011;16389;50.126;8.450;2023-02-07T17:21:42;5.25;;;2.50;;
29412;SDS011;16389;50.126;8.450;2023-02-07T17:24:08;5.63;;;2.80;;
29412;SDS011;16389;50.126;8.450;2023-02-07T17:26:35;5.50;;;3.13;;
29412;SDS011;16389;50.126;8.450;2023-02-07T17:29:03;7.13;;;4.63;;
29412;SDS011;16389;50.126;8.450;2023-02-07T17:31:29;6.20;;;3.10;;
29412;SDS011;16389;50.126;8.450;2023-02-07T17:33:56;9.05;;;4.05;;
29412;SDS011;16389;50.126;8.450;2023-02-07T17:36:22;6.63;;;4.50;;
29412;SDS011;16389;50.126;8.450;2023-02-07T17:38:49;8.82;;;3.72;;
29412;SDS011;16389;50.126;8.450;2023-02-07T17:41:15;9.63;;;4.43;;
29412;SDS011;16389;50.126;8.450;2023-02-07T17:43:41;5.78;;;3.05;;